Time;durP1;ratioP1;P1;durP2;ratioP2;P2;SDS_P1;SDS_P2;PMS_P1;PMS_P2;Temp;Humidity;BMP_temperature;BMP_pressure;BME280_temperature;BME280_humidity;BME280_pressure;Samples;Min_cycle;Max_cycle;Signal;HPM_P1;HPM_P2
2023/04/15 00:00:41;;;;;;;17.17;9.23;;;6.60;99.90;;;;;;4945545;28;20059;-66
2023/04/15 00:03:07;;;;;;;13.90;9.95;;;6.80;99.90;;;;;;4926401;28;20051;-67
2023/04/15 00:05:33;;;;;;;17.13;9.25;;;6.90;99.90;;;;;;4946984;28;20039;-66
2023/04/15 00:08:00;;;;;;;16.30;9.63;;;7.00;99.90;;;;;;4948282;28;20047;-66
2023/04/15 00:10:26;;;;;;;16.75;9.65;;;7.00;99.90;;;;;;4952279;28;20134;-67
2023/04/15 00:12:51;;;;;;;15.15;8.82;;;7.00;99.90;;;;;;4952950;28;20552;-66
2023/04/15 00:15:17;;;;;;;12.70;8.63;;;7.00;99.90;;;;;;4949548;29;20095;-67
2023/04/15 00:17:43;;;;;;;11.27;7.38;;;6.80;99.90;;;;;;4951072;28;20498;-66
2023/04/15 00:20:09;;;;;;;14.60;8.15;;;6.50;99.90;;;;;;4952308;28;20031;-66
2023/04/15 00:22:35;;;;;;;13.05;7.85;;;6.30;99.90;;;;;;4952381;29;20043;-67
2023/04/15 00:25:01;;;;;;;13.25;8.02;;;6.10;99.90;;;;;;4931865;28;20095;-66
2023/04/15 00:27:26;;;;;;;10.75;8.05;;;6.00;99.90;;;;;;4948833;28;20039;-66
2023/04/15 00:29:52;;;;;;;12.60;8.45;;;5.90;99.90;;;;;;4952666;28;20040;-66
2023/04/15 00:32:17;;;;;;;14.50;8.63;;;5.80;99.90;;;;;;4952569;29;20528;-66
2023/04/15 00:34:43;;;;;;;12.77;8.48;;;5.80;99.90;;;;;;4944554;28;20204;-67
2023/04/15 00:37:09;;;;;;;11.13;7.97;;;5.70;99.90;;;;;;4951941;28;20110;-66
2023/04/15 00:39:35;;;;;;;12.68;8.20;;;5.70;99.90;;;;;;4952119;29;20085;-66
2023/04/15 00:42:02;;;;;;;18.10;8.90;;;5.60;99.90;;;;;;4937916;28;20079;-67
2023/04/15 00:44:28;;;;;;;12.75;8.10;;;5.60;99.90;;;;;;4951556;28;20462;-67
2023/04/15 00:46:54;;;;;;;15.02;9.60;;;5.60;99.90;;;;;;4951952;28;20094;-66
2023/04/15 00:49:20;;;;;;;17.85;9.35;;;5.60;99.90;;;;;;4952481;29;20039;-65
2023/04/15 00:51:45;;;;;;;11.63;8.43;;;5.60;99.90;;;;;;4934551;28;20379;-65
2023/04/15 00:54:11;;;;;;;14.70;9.23;;;5.60;99.90;;;;;;4939447;28;20681;-65
2023/04/15 00:56:38;;;;;;;13.38;8.32;;;5.60;99.90;;;;;;4949077;28;20073;-65
2023/04/15 00:59:07;;;;;;;14.38;8.77;;;5.50;99.90;;;;;;4955849;28;20047;-65
2023/04/15 01:01:34;;;;;;;13.15;8.57;;;5.50;99.90;;;;;;4943452;28;20475;-65
2023/04/15 01:04:00;;;;;;;15.30;9.10;;;5.50;99.90;;;;;;4954432;28;20050;-65
2023/04/15 01:06:27;;;;;;;14.38;9.00;;;5.40;99.90;;;;;;4956230;29;20043;-65
2023/04/15 01:08:53;;;;;;;15.70;8.75;;;5.40;99.90;;;;;;4952502;28;20043;-65
2023/04/15 01:11:19;;;;;;;14.57;8.52;;;5.30;99.90;;;;;;4927322;29;20036;-66
2023/04/15 01:13:48;;;;;;;15.55;9.55;;;5.20;99.90;;;;;;4952032;28;20047;-66
2023/04/15 01:16:15;;;;;;;15.52;9.15;;;5.30;99.90;;;;;;4936474;29;20410;-66
2023/04/15 01:18:41;;;;;;;14.63;9.18;;;5.20;99.90;;;;;;4943462;28;20079;-65
2023/04/15 01:21:06;;;;;;;15.98;9.40;;;5.20;99.90;;;;;;4951223;28;20078;-65
2023/04/15 01:23:35;;;;;;;17.27;9.80;;;5.20;99.90;;;;;;4946412;28;20053;-66
2023/04/15 01:26:02;;;;;;;13.63;9.07;;;5.10;99.90;;;;;;4951532;28;20043;-66
2023/04/15 01:28:27;;;;;;;15.35;9.60;;;5.10;99.90;;;;;;4941943;28;20406;-65
2023/04/15 01:31:11;;;;;;;17.85;10.45;;;5.10;99.90;;;;;;4952830;28;20039;-65
2023/04/15 01:33:40;;;;;;;15.40;10.15;;;5.10;99.90;;;;;;4938729;29;20039;-65
2023/04/15 01:36:08;;;;;;;15.05;9.85;;;5.00;99.90;;;;;;4944669;28;20119;-65
2023/04/15 01:38:35;;;;;;;19.23;10.02;;;5.00;99.90;;;;;;4950844;28;20043;-65
2023/04/15 01:41:01;;;;;;;14.95;9.82;;;4.90;99.90;;;;;;4954429;28;20082;-65
2023/04/15 01:43:27;;;;;;;16.58;9.63;;;4.90;99.90;;;;;;4955017;28;20086;-65
2023/04/15 01:45:53;;;;;;;15.82;9.57;;;4.90;99.90;;;;;;4955352;29;20070;-65
2023/04/15 01:48:18;;;;;;;14.18;9.40;;;4.90;99.90;;;;;;4943724;28;20035;-66
2023/04/15 01:50:44;;;;;;;17.63;10.38;;;4.80;99.90;;;;;;4936708;29;20043;-65
2023/04/15 01:53:10;;;;;;;18.00;9.98;;;4.80;99.90;;;;;;4938218;29;20087;-66
2023/04/15 01:55:35;;;;;;;16.42;9.88;;;4.80;99.90;;;;;;4944032;28;20044;-66
2023/04/15 01:58:01;;;;;;;17.85;10.15;;;4.80;99.90;;;;;;4948088;28;20457;-66
2023/04/15 02:00:27;;;;;;;15.13;9.30;;;4.90;99.90;;;;;;4955257;28;20043;-66
2023/04/15 02:02:53;;;;;;;15.35;9.52;;;4.80;99.90;;;;;;4955221;29;20043;-66
2023/04/15 02:05:18;;;;;;;21.13;10.23;;;4.80;99.90;;;;;;4944265;28;20070;-66
2023/04/15 02:07:44;;;;;;;17.65;10.32;;;4.80;99.90;;;;;;4953669;28;20079;-65
2023/04/15 02:10:12;;;;;;;21.33;10.73;;;4.80;99.90;;;;;;4954909;28;20046;-66
2023/04/15 02:12:38;;;;;;;19.85;10.63;;;4.80;99.90;;;;;;4947598;28;20126;-66
2023/04/15 02:15:04;;;;;;;19.65;11.20;;;4.90;99.90;;;;;;4953941;28;20493;-66
2023/04/15 02:17:33;;;;;;;17.50;10.98;;;4.80;99.90;;;;;;4954238;28;20039;-67
2023/04/15 02:19:59;;;;;;;21.00;11.50;;;4.90;99.90;;;;;;4934071;29;20050;-66
2023/04/15 02:22:25;;;;;;;17.55;10.90;;;4.80;99.90;;;;;;4936918;28;20408;-66
2023/04/15 02:24:51;;;;;;;18.88;10.60;;;4.70;99.90;;;;;;4951278;28;20398;-65
2023/04/15 02:27:17;;;;;;;15.57;10.20;;;4.70;99.90;;;;;;4954721;29;20540;-66
2023/04/15 02:29:45;;;;;;;17.80;10.10;;;4.70;99.90;;;;;;4944855;28;20090;-66
2023/04/15 02:32:12;;;;;;;15.85;10.20;;;4.70;99.90;;;;;;4929074;29;20047;-65
2023/04/15 02:34:41;;;;;;;18.27;10.35;;;4.70;99.90;;;;;;4937348;29;20050;-65
2023/04/15 02:37:11;;;;;;;17.00;10.35;;;4.60;99.90;;;;;;4924290;28;20039;-66
2023/04/15 02:39:37;;;;;;;15.95;9.63;;;4.60;99.90;;;;;;4952593;28;20055;-66
2023/04/15 02:42:04;;;;;;;15.13;9.65;;;4.60;99.90;;;;;;4955095;28;20043;-65
2023/04/15 02:44:31;;;;;;;17.75;10.43;;;4.60;99.90;;;;;;4938765;28;20081;-64
2023/04/15 02:46:57;;;;;;;16.00;9.48;;;4.60;99.90;;;;;;4945199;28;20062;-65
2023/04/15 02:49:24;;;;;;;18.33;10.48;;;4.50;99.90;;;;;;4954434;28;20031;-66
2023/04/15 02:51:50;;;;;;;17.92;10.05;;;4.50;99.90;;;;;;4937940;29;20043;-65
2023/04/15 02:54:17;;;;;;;17.63;9.77;;;4.50;99.90;;;;;;4950263;28;20105;-66
2023/04/15 02:56:42;;;;;;;16.08;9.65;;;4.50;99.90;;;;;;4951945;28;20039;-65
2023/04/15 02:59:08;;;;;;;16.23;10.10;;;4.40;99.90;;;;;;4954572;28;20043;-65
2023/04/15 03:01:33;;;;;;;17.73;9.77;;;4.40;99.90;;;;;;4955058;29;20490;-66
2023/04/15 03:03:59;;;;;;;15.10;9.25;;;4.30;99.90;;;;;;4927206;28;20047;-66
2023/04/15 03:06:25;;;;;;;16.77;9.65;;;4.20;99.90;;;;;;4937150;29;20054;-66
2023/04/15 03:08:50;;;;;;;16.80;9.65;;;4.10;99.90;;;;;;4954858;29;20524;-66
2023/04/15 03:11:17;;;;;;;17.20;10.02;;;4.10;99.90;;;;;;4952036;28;20039;-66
2023/04/15 03:13:43;;;;;;;18.13;10.15;;;4.10;99.90;;;;;;4946328;28;20039;-66
2023/04/15 03:16:09;;;;;;;20.00;11.27;;;4.10;99.90;;;;;;4953920;28;20098;-65
2023/04/15 03:18:35;;;;;;;17.52;11.45;;;4.10;99.90;;;;;;4949071;28;20065;-66
2023/04/15 03:21:01;;;;;;;22.77;11.70;;;4.20;99.90;;;;;;4953347;28;20498;-66
2023/04/15 03:23:27;;;;;;;18.85;11.30;;;4.20;99.90;;;;;;4954373;28;20094;-66
2023/04/15 03:25:54;;;;;;;19.90;11.25;;;4.30;99.90;;;;;;4954506;29;20039;-65
2023/04/15 03:28:20;;;;;;;22.02;11.65;;;4.30;99.90;;;;;;4946195;28;20110;-66
2023/04/15 03:30:46;;;;;;;19.85;11.80;;;4.30;99.90;;;;;;4933722;28;20565;-64
2023/04/15 03:33:11;;;;;;;19.77;12.35;;;4.30;99.90;;;;;;4936734;29;20501;-66
2023/04/15 03:35:37;;;;;;;24.75;12.68;;;4.30;99.90;;;;;;4945995;29;20045;-66
2023/04/15 03:38:03;;;;;;;23.48;12.52;;;4.20;99.90;;;;;;4940652;28;20094;-66
2023/04/15 03:40:28;;;;;;;20.63;12.07;;;4.20;99.90;;;;;;4953682;28;20042;-66
2023/04/15 03:42:54;;;;;;;23.15;12.25;;;4.20;99.90;;;;;;4931092;28;20047;-67
2023/04/15 03:45:20;;;;;;;22.48;12.30;;;4.20;99.90;;;;;;4936395;29;20047;-66
2023/04/15 03:47:45;;;;;;;22.05;12.88;;;4.20;99.90;;;;;;4953398;28;20047;-65
2023/04/15 03:50:11;;;;;;;25.20;13.18;;;4.20;99.90;;;;;;4951455;29;20039;-65
2023/04/15 03:52:37;;;;;;;20.90;13.23;;;4.20;99.90;;;;;;4949216;28;20039;-65
2023/04/15 03:55:02;;;;;;;23.17;13.38;;;4.20;99.90;;;;;;4952467;28;20063;-65
2023/04/15 03:57:28;;;;;;;20.83;12.45;;;4.20;99.90;;;;;;4953664;28;20047;-65
2023/04/15 03:59:54;;;;;;;24.67;13.20;;;4.10;99.90;;;;;;4959461;23;20047;-66
2023/04/15 04:02:19;;;;;;;22.63;12.73;;;4.10;99.90;;;;;;4968151;28;20039;-67
2023/04/15 04:04:45;;;;;;;22.17;12.35;;;4.10;99.90;;;;;;4938461;29;20051;-66
2023/04/15 04:07:15;;;;;;;23.65;12.15;;;4.00;99.90;;;;;;4954267;28;20031;-65
2023/04/15 04:09:41;;;;;;;20.77;11.80;;;4.00;99.90;;;;;;4954262;28;20513;-65
2023/04/15 04:12:07;;;;;;;23.45;12.52;;;3.90;99.90;;;;;;4953300;28;20108;-65
2023/04/15 04:14:32;;;;;;;22.13;12.27;;;3.90;99.90;;;;;;4953651;28;20523;-66
2023/04/15 04:16:58;;;;;;;23.30;12.25;;;3.90;99.90;;;;;;4953410;29;20394;-65
2023/04/15 04:19:23;;;;;;;24.50;11.82;;;3.90;99.90;;;;;;4953953;28;20378;-65
2023/04/15 04:21:49;;;;;;;18.60;11.40;;;3.90;99.90;;;;;;4953440;28;20532;-65
2023/04/15 04:24:15;;;;;;;20.88;11.43;;;3.90;99.90;;;;;;4969169;28;20042;-66
2023/04/15 04:26:40;;;;;;;20.42;11.52;;;3.90;99.90;;;;;;4950342;28;20133;-65
2023/04/15 04:29:06;;;;;;;25.10;11.40;;;3.90;99.90;;;;;;4952940;28;20031;-66
2023/04/15 04:31:31;;;;;;;20.13;11.35;;;3.80;99.90;;;;;;4967431;28;20600;-66
2023/04/15 04:33:57;;;;;;;23.20;11.75;;;3.80;99.90;;;;;;4967358;28;20121;-66
2023/04/15 04:36:22;;;;;;;21.02;11.57;;;3.90;99.90;;;;;;4935286;29;20043;-66
2023/04/15 04:38:48;;;;;;;23.75;12.45;;;3.90;99.90;;;;;;4953012;28;20047;-66
2023/04/15 04:41:14;;;;;;;23.67;12.98;;;3.90;99.90;;;;;;4953239;29;20049;-66
2023/04/15 04:43:39;;;;;;;18.75;11.32;;;4.00;99.90;;;;;;4957530;28;20133;-66
2023/04/15 04:46:05;;;;;;;19.88;11.20;;;4.00;99.90;;;;;;4942495;28;20512;-66
2023/04/15 04:48:31;;;;;;;21.17;11.70;;;4.10;99.90;;;;;;4975104;28;20035;-66
2023/04/15 04:50:56;;;;;;;21.40;12.13;;;4.10;99.90;;;;;;4972225;28;20078;-65
2023/04/15 04:53:22;;;;;;;24.48;11.65;;;4.10;99.90;;;;;;4952698;28;20050;-65
2023/04/15 04:55:47;;;;;;;22.38;11.23;;;4.20;99.90;;;;;;4955285;28;20095;-65
2023/04/15 04:58:13;;;;;;;23.63;11.38;;;4.20;99.90;;;;;;4941765;28;20039;-65
2023/04/15 05:00:39;;;;;;;20.75;11.30;;;4.20;99.90;;;;;;4954269;28;20042;-66
2023/04/15 05:03:05;;;;;;;20.92;10.93;;;4.20;99.90;;;;;;4940023;28;20143;-66
2023/04/15 05:05:31;;;;;;;21.42;10.45;;;4.20;99.90;;;;;;4958243;28;20063;-65
2023/04/15 05:07:56;;;;;;;18.98;10.00;;;4.20;99.90;;;;;;4960095;28;20047;-66
2023/04/15 05:10:22;;;;;;;21.80;10.73;;;4.30;99.90;;;;;;4961695;28;20039;-65
2023/04/15 05:12:47;;;;;;;19.27;10.05;;;4.30;99.90;;;;;;4945355;28;20046;-65
2023/04/15 05:15:13;;;;;;;20.02;10.43;;;4.30;99.90;;;;;;4961878;28;20401;-66
2023/04/15 05:17:39;;;;;;;18.23;10.32;;;4.40;99.90;;;;;;4955834;28;20045;-66
2023/04/15 05:20:05;;;;;;;18.23;10.50;;;4.40;99.90;;;;;;4960504;28;20106;-65
2023/04/15 05:22:30;;;;;;;17.58;9.85;;;4.40;99.90;;;;;;4961769;28;20039;-66
2023/04/15 05:24:56;;;;;;;18.73;10.05;;;4.40;99.90;;;;;;4961607;28;20557;-65
2023/04/15 05:27:22;;;;;;;23.88;10.88;;;4.40;99.90;;;;;;4963068;28;20070;-65
2023/04/15 05:29:48;;;;;;;21.25;10.13;;;4.40;99.90;;;;;;4960495;28;20054;-65
2023/04/15 05:32:14;;;;;;;19.92;10.80;;;4.50;99.90;;;;;;4961405;28;20035;-65
2023/04/15 05:34:39;;;;;;;20.80;10.73;;;4.60;99.90;;;;;;4959629;28;20492;-65
2023/04/15 05:37:05;;;;;;;20.45;10.95;;;4.70;99.90;;;;;;4946927;28;20047;-65
2023/04/15 05:39:31;;;;;;;19.83;10.23;;;4.70;99.90;;;;;;4941713;28;20495;-65
2023/04/15 05:41:57;;;;;;;22.50;10.07;;;4.70;99.90;;;;;;4959413;28;20047;-65
2023/04/15 05:44:22;;;;;;;20.08;10.57;;;4.80;99.90;;;;;;4969010;28;20531;-65
2023/04/15 05:46:48;;;;;;;19.63;11.23;;;4.80;99.90;;;;;;4965202;28;20046;-65
2023/04/15 05:49:13;;;;;;;19.17;10.82;;;4.80;99.90;;;;;;4958860;28;20050;-65
2023/04/15 05:51:39;;;;;;;21.83;10.25;;;4.90;99.90;;;;;;4967483;28;20046;-65
2023/04/15 05:54:05;;;;;;;20.85;10.85;;;4.90;99.90;;;;;;4966532;28;20031;-65
2023/04/15 05:56:31;;;;;;;23.33;11.10;;;5.00;99.90;;;;;;4962751;28;20043;-65
2023/04/15 05:58:56;;;;;;;21.48;11.90;;;5.00;99.90;;;;;;4966977;28;20382;-66
2023/04/15 06:01:22;;;;;;;20.20;11.05;;;5.10;99.90;;;;;;4968409;28;20039;-65
2023/04/15 06:03:48;;;;;;;22.63;12.52;;;5.20;99.90;;;;;;4962237;28;20054;-67
2023/04/15 06:06:14;;;;;;;24.70;12.35;;;5.20;99.90;;;;;;4961341;28;20039;-66
2023/04/15 06:08:40;;;;;;;26.80;12.80;;;5.30;99.90;;;;;;4965021;28;20416;-65
2023/04/15 06:11:06;;;;;;;27.48;12.65;;;5.40;99.90;;;;;;4941937;28;20146;-67
2023/04/15 06:13:31;;;;;;;22.90;11.40;;;5.60;99.90;;;;;;4946585;28;20093;-67
2023/04/15 06:15:57;;;;;;;23.42;12.80;;;5.60;99.90;;;;;;4959585;28;20035;-66
2023/04/15 06:18:22;;;;;;;25.60;12.73;;;5.80;99.90;;;;;;4963985;28;20512;-66
2023/04/15 06:20:48;;;;;;;24.75;12.98;;;5.90;99.90;;;;;;4948880;28;20133;-66
2023/04/15 06:23:14;;;;;;;19.02;10.45;;;6.00;99.90;;;;;;4962620;28;20091;-65
2023/04/15 06:25:39;;;;;;;15.85;8.38;;;6.20;99.90;;;;;;4961205;28;20054;-65
2023/04/15 06:28:06;;;;;;;20.55;9.98;;;6.30;99.90;;;;;;4966756;28;20124;-66
2023/04/15 06:30:32;;;;;;;15.25;8.55;;;6.40;99.90;;;;;;4979093;28;20493;-66
2023/04/15 06:32:57;;;;;;;19.48;9.90;;;6.50;99.90;;;;;;4957864;28;20046;-66
2023/04/15 06:35:23;;;;;;;18.33;9.80;;;6.60;99.90;;;;;;4954875;28;20122;-65
2023/04/15 06:37:48;;;;;;;17.38;9.60;;;6.70;99.90;;;;;;4975222;28;20062;-66
2023/04/15 06:40:14;;;;;;;16.90;8.82;;;6.70;99.90;;;;;;4954868;28;20047;-65
2023/04/15 06:42:40;;;;;;;17.50;9.85;;;6.80;99.90;;;;;;4959679;28;20130;-66
2023/04/15 06:45:07;;;;;;;21.52;11.10;;;6.80;99.90;;;;;;4937000;28;20074;-66
2023/04/15 06:47:33;;;;;;;21.27;11.00;;;6.90;99.90;;;;;;4954331;28;20038;-66
2023/04/15 06:49:58;;;;;;;18.85;10.05;;;7.00;99.90;;;;;;4963884;28;20441;-66
2023/04/15 06:52:24;;;;;;;18.42;9.40;;;7.00;99.90;;;;;;4962145;28;20090;-67
2023/04/15 06:54:49;;;;;;;21.27;11.20;;;7.10;99.90;;;;;;4953434;28;20039;-66
2023/04/15 06:57:15;;;;;;;20.52;11.55;;;7.20;99.90;;;;;;4954037;28;20035;-66
2023/04/15 06:59:41;;;;;;;14.15;8.38;;;7.20;99.90;;;;;;4954088;28;20047;-66
2023/04/15 07:02:11;;;;;;;14.80;7.80;;;7.30;99.90;;;;;;4954723;28;20099;-65
2023/04/15 07:04:36;;;;;;;23.13;10.30;;;7.40;99.90;;;;;;4952002;28;20043;-67
2023/04/15 07:07:02;;;;;;;17.35;8.52;;;7.50;99.90;;;;;;4961796;28;20039;-67
2023/04/15 07:09:28;;;;;;;18.70;10.35;;;7.50;99.90;;;;;;4930552;28;20043;-67
2023/04/15 07:11:54;;;;;;;20.30;11.52;;;7.60;99.90;;;;;;4959730;28;20039;-67
2023/04/15 07:14:19;;;;;;;14.55;8.32;;;7.60;99.90;;;;;;4953520;28;20525;-66
2023/04/15 07:16:46;;;;;;;17.52;9.80;;;7.70;99.90;;;;;;4954059;28;20047;-65
2023/04/15 07:19:11;;;;;;;21.90;11.93;;;7.70;99.90;;;;;;4937085;29;20039;-65
2023/04/15 07:21:37;;;;;;;21.35;10.70;;;7.70;99.90;;;;;;4951772;28;20465;-65
2023/04/15 07:24:02;;;;;;;15.18;8.27;;;7.70;99.90;;;;;;4953905;28;20383;-66
2023/04/15 07:26:28;;;;;;;19.08;9.93;;;7.80;99.90;;;;;;4953763;28;20062;-65
2023/04/15 07:28:54;;;;;;;17.73;9.68;;;7.90;99.90;;;;;;4951375;28;21088;-64
2023/04/15 07:31:20;;;;;;;15.68;8.93;;;7.90;99.90;;;;;;4960751;28;20051;-64
2023/04/15 07:33:45;;;;;;;14.80;6.70;;;8.00;99.90;;;;;;4954298;28;20039;-64
2023/04/15 07:36:11;;;;;;;15.23;7.55;;;8.10;99.90;;;;;;4954422;29;20039;-66
2023/04/15 07:38:37;;;;;;;11.85;6.15;;;8.10;99.90;;;;;;4952222;28;20051;-66
2023/04/15 07:41:03;;;;;;;8.15;4.78;;;8.20;99.90;;;;;;4956490;28;20077;-66
2023/04/15 07:43:29;;;;;;;11.20;5.72;;;8.20;99.90;;;;;;4954023;28;20138;-66
2023/04/15 07:45:54;;;;;;;14.93;7.53;;;8.30;99.90;;;;;;4951935;28;20158;-65
2023/04/15 07:48:20;;;;;;;17.92;9.10;;;8.40;99.90;;;;;;4953716;28;20043;-66
2023/04/15 07:50:46;;;;;;;15.50;8.18;;;8.50;99.90;;;;;;4951088;28;20043;-66
2023/04/15 07:53:12;;;;;;;17.75;9.52;;;8.50;99.90;;;;;;4961136;28;20038;-66
2023/04/15 07:55:37;;;;;;;16.55;9.13;;;8.60;99.90;;;;;;4936539;29;20469;-66
2023/04/15 07:58:03;;;;;;;16.67;9.27;;;8.70;99.90;;;;;;4943842;28;20138;-66
2023/04/15 08:00:29;;;;;;;16.83;9.43;;;8.80;99.90;;;;;;4958025;28;20644;-65
2023/04/15 08:02:58;;;;;;;18.27;9.85;;;8.80;99.90;;;;;;4938064;28;20042;-64
2023/04/15 08:05:24;;;;;;;17.17;9.57;;;8.90;99.90;;;;;;4951340;28;20035;-65
2023/04/15 08:07:50;;;;;;;18.27;8.25;;;9.10;99.90;;;;;;4933913;29;20054;-65
2023/04/15 08:10:16;;;;;;;14.05;7.85;;;9.10;99.90;;;;;;4949011;28;20035;-65
2023/04/15 08:12:41;;;;;;;20.23;9.90;;;9.20;99.90;;;;;;4951071;28;20036;-65
2023/04/15 08:15:08;;;;;;;12.45;7.38;;;9.40;99.90;;;;;;4945695;28;20698;-65
2023/04/15 08:17:33;;;;;;;13.95;7.60;;;9.50;99.90;;;;;;4947050;28;20035;-66
2023/04/15 08:19:59;;;;;;;17.30;9.02;;;9.60;99.90;;;;;;4957381;28;20109;-65
2023/04/15 08:22:25;;;;;;;9.27;5.22;;;9.70;99.90;;;;;;4953275;28;20035;-65
2023/04/15 08:24:50;;;;;;;17.50;8.07;;;9.60;99.90;;;;;;4952246;28;20406;-65
2023/04/15 08:27:16;;;;;;;15.23;8.93;;;9.60;99.90;;;;;;4950624;28;20118;-65
2023/04/15 08:29:42;;;;;;;13.70;7.30;;;9.70;99.90;;;;;;4952644;28;20043;-65
2023/04/15 08:32:08;;;;;;;12.02;6.97;;;9.70;99.90;;;;;;4951210;28;20043;-65
2023/04/15 08:34:34;;;;;;;14.65;8.25;;;9.70;99.90;;;;;;4951887;29;20534;-65
2023/04/15 08:37:00;;;;;;;11.90;7.10;;;9.70;99.90;;;;;;4949668;28;20039;-65
2023/04/15 08:39:26;;;;;;;10.77;6.47;;;9.70;99.90;;;;;;4950749;28;20047;-65
2023/04/15 08:42:02;;;;;;;12.48;6.88;;;9.70;99.90;;;;;;4951123;28;20469;-65
2023/04/15 08:44:33;;;;;;;12.48;7.10;;;9.80;99.90;;;;;;4952719;28;20046;-65
2023/04/15 08:47:06;;;;;;;9.02;5.05;;;9.90;99.90;;;;;;4952107;28;20043;-65
2023/04/15 08:49:31;;;;;;;13.27;6.93;;;9.90;99.90;;;;;;4935220;29;20572;-65
2023/04/15 08:51:59;;;;;;;13.13;6.93;;;9.90;99.90;;;;;;4949197;28;20066;-64
2023/04/15 08:54:25;;;;;;;8.05;3.88;;;9.80;99.90;;;;;;4951737;28;20036;-65
2023/04/15 08:56:52;;;;;;;11.15;4.55;;;9.70;99.90;;;;;;4952581;28;20039;-65
2023/04/15 08:59:20;;;;;;;7.43;3.88;;;9.60;99.90;;;;;;4953138;29;20047;-65
2023/04/15 09:01:47;;;;;;;9.10;5.30;;;9.50;99.90;;;;;;4944212;28;20037;-65
2023/04/15 09:04:13;;;;;;;11.32;5.15;;;9.60;99.90;;;;;;4956429;28;20394;-64
2023/04/15 09:06:39;;;;;;;8.27;4.20;;;9.60;99.90;;;;;;4949743;28;20066;-65
2023/04/15 09:09:05;;;;;;;10.63;5.57;;;9.50;99.90;;;;;;4931368;28;20041;-65
2023/04/15 09:11:30;;;;;;;5.50;3.33;;;9.50;99.90;;;;;;4950679;28;20397;-65
2023/04/15 09:13:56;;;;;;;8.32;3.97;;;9.60;99.90;;;;;;4932985;29;20043;-65
2023/04/15 09:16:22;;;;;;;6.53;3.75;;;9.60;99.90;;;;;;4950921;28;20525;-65
2023/04/15 09:18:47;;;;;;;5.53;3.00;;;9.60;99.90;;;;;;4952237;28;20473;-65
2023/04/15 09:21:16;;;;;;;4.55;3.13;;;9.70;99.90;;;;;;4961919;28;20466;-65
2023/04/15 09:23:57;;;;;;;7.03;2.80;;;9.70;99.90;;;;;;4956565;28;20520;-65
2023/04/15 09:26:37;;;;;;;5.72;3.20;;;9.70;99.90;;;;;;4957704;28;20038;-65
2023/04/15 09:29:08;;;;;;;6.93;3.33;;;9.60;99.90;;;;;;4964987;28;20077;-66
2023/04/15 09:31:34;;;;;;;7.38;3.72;;;9.60;99.90;;;;;;4947093;28;20043;-66
2023/04/15 09:34:00;;;;;;;8.57;3.03;;;9.60;99.90;;;;;;4959184;28;20114;-65
2023/04/15 09:36:28;;;;;;;6.90;3.13;;;9.50;99.90;;;;;;4967759;28;20122;-65
2023/04/15 09:38:56;;;;;;;9.32;4.60;;;9.60;99.90;;;;;;4963721;28;20035;-66
2023/04/15 09:41:22;;;;;;;5.05;3.05;;;9.60;99.90;;;;;;4946427;28;20043;-65
2023/04/15 09:43:47;;;;;;;4.90;3.28;;;9.60;99.90;;;;;;4945122;28;20086;-66
2023/04/15 09:46:13;;;;;;;5.55;3.22;;;9.70;99.90;;;;;;4943015;28;20106;-65
2023/04/15 09:48:38;;;;;;;3.17;2.30;;;9.70;99.90;;;;;;4964470;28;20406;-65
2023/04/15 09:51:05;;;;;;;4.25;3.08;;;9.70;99.90;;;;;;4963738;28;20482;-65
2023/04/15 09:53:33;;;;;;;4.97;2.80;;;9.60;99.90;;;;;;4971014;28;20497;-65
2023/04/15 09:56:01;;;;;;;4.10;2.50;;;9.60;99.90;;;;;;4966398;28;20077;-65
2023/04/15 09:58:32;;;;;;;5.70;2.40;;;9.60;99.90;;;;;;4954934;28;20058;-65
2023/04/15 10:01:00;;;;;;;4.20;2.75;;;9.70;99.90;;;;;;4939258;28;20050;-65
2023/04/15 10:03:27;;;;;;;4.53;2.53;;;9.70;99.90;;;;;;5013008;23;20047;-68
2023/04/15 10:05:55;;;;;;;6.15;2.53;;;9.80;99.90;;;;;;4959008;28;20117;-68
2023/04/15 10:08:23;;;;;;;3.70;1.85;;;9.80;99.90;;;;;;4958964;28;20117;-68
2023/04/15 10:10:51;;;;;;;4.43;2.50;;;9.80;99.90;;;;;;4983973;28;20500;-66
2023/04/15 10:13:22;;;;;;;4.00;2.13;;;9.80;99.90;;;;;;4947355;28;20481;-68
2023/04/15 10:15:55;;;;;;;3.00;2.03;;;9.80;99.90;;;;;;4953698;28;20053;-67
2023/04/15 10:18:23;;;;;;;5.20;3.17;;;9.80;99.90;;;;;;4969162;28;20062;-70
2023/04/15 10:20:50;;;;;;;5.05;2.90;;;9.90;99.90;;;;;;4966636;28;20501;-68
2023/04/15 10:23:17;;;;;;;3.30;2.22;;;10.00;99.90;;;;;;4968691;28;20053;-67
2023/04/15 10:25:44;;;;;;;4.35;3.15;;;10.00;99.90;;;;;;4970238;28;20050;-66
2023/04/15 10:28:10;;;;;;;5.50;2.90;;;10.00;99.90;;;;;;4973431;28;20046;-68
2023/04/15 10:30:36;;;;;;;4.32;2.65;;;10.00;99.90;;;;;;4992071;28;20042;-68
2023/04/15 10:33:04;;;;;;;4.05;2.05;;;10.00;99.90;;;;;;4986679;28;20038;-67
2023/04/15 10:35:31;;;;;;;3.00;1.88;;;10.00;99.90;;;;;;4979579;28;20058;-68
2023/04/15 10:37:56;;;;;;;4.68;2.35;;;10.00;99.90;;;;;;4973790;28;20571;-66
2023/04/15 10:40:23;;;;;;;4.28;2.30;;;10.10;99.90;;;;;;4973817;28;20190;-67
2023/04/15 10:42:49;;;;;;;5.63;3.17;;;10.20;99.90;;;;;;4982100;28;20401;-67
2023/04/15 10:45:18;;;;;;;4.43;2.20;;;10.40;99.90;;;;;;4971348;28;20042;-67
2023/04/15 10:47:44;;;;;;;3.63;2.00;;;10.40;99.90;;;;;;4980193;28;20046;-68
2023/04/15 10:50:10;;;;;;;10.75;2.78;;;10.40;99.90;;;;;;4964935;28;20113;-68
2023/04/15 10:52:40;;;;;;;4.97;2.78;;;10.40;99.90;;;;;;4977234;28;20042;-67
2023/04/15 10:55:23;;;;;;;4.93;2.58;;;10.30;99.90;;;;;;4961186;28;20034;-69
2023/04/15 10:57:53;;;;;;;3.50;2.05;;;10.30;99.90;;;;;;4975927;28;20043;-67
2023/04/15 11:00:23;;;;;;;5.80;2.00;;;10.20;99.90;;;;;;4979729;28;20045;-68
2023/04/15 11:03:06;;;;;;;4.38;2.50;;;10.20;99.90;;;;;;4951901;28;20133;-68
2023/04/15 11:05:41;;;;;;;5.57;2.40;;;10.20;99.90;;;;;;4990488;28;20130;-68
2023/04/15 11:08:11;;;;;;;5.15;2.97;;;10.20;99.90;;;;;;4970407;28;20519;-68
2023/04/15 11:10:36;;;;;;;5.20;3.17;;;10.20;99.90;;;;;;4981968;28;20089;-68
2023/04/15 11:13:04;;;;;;;4.57;3.10;;;10.20;99.90;;;;;;4961799;28;20042;-68
2023/04/15 11:15:35;;;;;;;3.75;2.40;;;10.20;99.90;;;;;;4965248;28;20485;-68
2023/04/15 11:18:23;;;;;;;4.13;2.20;;;10.20;99.90;;;;;;4941770;28;20085;-68
2023/04/15 11:20:51;;;;;;;3.67;2.30;;;10.20;99.90;;;;;;4984027;28;20485;-68
2023/04/15 11:23:33;;;;;;;4.85;3.00;;;10.10;99.90;;;;;;4977938;28;20090;-68
2023/04/15 11:26:04;;;;;;;5.18;2.08;;;10.10;99.90;;;;;;4989158;28;20042;-68
2023/04/15 11:28:30;;;;;;;4.10;2.35;;;10.10;99.90;;;;;;4985363;28;20045;-68
2023/04/15 11:30:57;;;;;;;2.67;2.03;;;10.10;99.90;;;;;;4991730;28;20715;-68
2023/04/15 11:33:23;;;;;;;4.28;2.33;;;10.10;99.90;;;;;;4942093;28;20065;-68
2023/04/15 11:35:51;;;;;;;4.72;3.08;;;10.20;99.90;;;;;;4955376;28;20121;-68
2023/04/15 11:38:17;;;;;;;6.15;3.15;;;10.30;99.90;;;;;;4973282;28;20042;-68
2023/04/15 11:40:43;;;;;;;4.32;2.63;;;10.30;99.90;;;;;;4975885;28;20163;-68
2023/04/15 11:43:09;;;;;;;3.85;2.50;;;10.40;99.90;;;;;;4963880;28;20057;-69
2023/04/15 11:45:36;;;;;;;6.10;2.30;;;10.60;99.90;;;;;;4987395;28;20065;-69
2023/04/15 11:48:09;;;;;;;2.47;1.75;;;10.60;99.90;;;;;;4992865;28;20080;-68
2023/04/15 11:50:36;;;;;;;3.20;2.10;;;10.60;99.90;;;;;;4954685;28;20544;-68
2023/04/15 11:53:04;;;;;;;4.43;2.65;;;10.50;99.90;;;;;;4973430;28;20042;-68
2023/04/15 11:55:30;;;;;;;5.00;2.28;;;10.50;99.90;;;;;;4989577;28;20468;-68
2023/04/15 11:58:10;;;;;;;4.45;2.20;;;10.40;99.90;;;;;;4977607;28;20049;-68
2023/04/15 12:04:16;;;;;;;3.45;1.92;;;10.50;99.90;;;;;;4989742;28;20050;-68
2023/04/15 12:06:42;;;;;;;5.80;2.70;;;10.40;99.90;;;;;;4990000;28;20035;-67
2023/04/15 12:09:17;;;;;;;4.85;2.60;;;10.30;99.90;;;;;;4958075;28;20045;-68
2023/04/15 12:11:51;;;;;;;6.13;2.83;;;10.30;99.90;;;;;;4974792;28;20102;-68
2023/04/15 12:18:04;;;;;;;5.07;2.95;;;10.50;99.90;;;;;;5257844;23;20122;-68
2023/04/15 12:20:30;;;;;;;7.32;3.20;;;10.50;99.90;;;;;;4961435;28;20130;-68
2023/04/15 12:23:05;;;;;;;3.47;2.25;;;10.50;99.90;;;;;;4956023;28;20036;-68
2023/04/15 12:28:12;;;;;;;5.68;2.85;;;10.60;99.90;;;;;;5730419;23;20072;-68
2023/04/15 12:30:50;;;;;;;7.13;3.38;;;10.60;99.90;;;;;;4992328;28;20045;-68
2023/04/15 12:33:16;;;;;;;7.53;3.00;;;10.60;99.90;;;;;;4986299;28;20051;-69
2023/04/15 12:35:41;;;;;;;6.20;3.03;;;10.60;99.90;;;;;;4966368;28;20055;-69
2023/04/15 12:38:09;;;;;;;6.07;3.17;;;10.60;99.90;;;;;;4970079;28;20045;-68
2023/04/15 12:40:35;;;;;;;4.95;2.45;;;10.70;99.90;;;;;;4980601;28;20501;-68
2023/04/15 12:43:00;;;;;;;6.57;3.60;;;10.70;99.90;;;;;;4981676;28;20110;-68
2023/04/15 12:45:26;;;;;;;6.47;3.00;;;10.70;99.90;;;;;;4979633;28;20532;-68
2023/04/15 12:47:51;;;;;;;4.05;2.40;;;10.70;99.90;;;;;;4977613;28;20040;-68
2023/04/15 12:50:17;;;;;;;8.27;3.03;;;10.60;99.90;;;;;;4963951;28;20039;-68
2023/04/15 12:52:42;;;;;;;3.35;1.98;;;10.50;99.90;;;;;;4968586;28;20134;-68